Time;durP1;ratioP1;P1;durP2;ratioP2;P2;SDS_P1;SDS_P2;PMS_P1;PMS_P2;Temp;Humidity;BMP_temperature;BMP_pressure;BME280_temperature;BME280_humidity;BME280_pressure;Samples;Min_cycle;Max_cycle;Signal;HPM_P1;HPM_P2
2022/03/30 00:01:00;;;;;;;28.30;13.88;;;5.50;99.90;;;;;;5076206;28;20025;-62
2022/03/30 00:03:26;;;;;;;27.50;13.20;;;5.40;99.90;;;;;;5075033;28;20055;-60
2022/03/30 00:05:52;;;;;;;28.55;14.55;;;5.40;99.90;;;;;;5076631;28;20059;-59
2022/03/30 00:08:18;;;;;;;31.95;14.52;;;5.40;99.90;;;;;;5075431;28;20028;-62
2022/03/30 00:10:43;;;;;;;28.17;13.93;;;5.40;99.90;;;;;;5076694;28;20029;-62
2022/03/30 00:13:09;;;;;;;27.77;13.13;;;5.30;99.90;;;;;;5076035;28;20504;-57
2022/03/30 00:15:35;;;;;;;28.48;13.35;;;5.30;99.90;;;;;;5076419;28;20477;-60
2022/03/30 00:18:00;;;;;;;24.65;13.02;;;5.20;99.90;;;;;;5077240;28;20024;-59
2022/03/30 00:20:26;;;;;;;29.25;13.93;;;5.20;99.90;;;;;;5075277;28;20020;-63
2022/03/30 00:22:52;;;;;;;30.52;13.18;;;5.20;99.90;;;;;;5076272;28;20030;-61
2022/03/30 00:25:18;;;;;;;27.13;12.85;;;5.10;99.90;;;;;;5075377;28;20104;-62
2022/03/30 00:27:46;;;;;;;27.75;13.75;;;5.10;99.90;;;;;;5076813;28;20069;-61
2022/03/30 00:30:13;;;;;;;30.40;14.50;;;5.10;99.90;;;;;;5074693;28;20485;-59
2022/03/30 00:32:39;;;;;;;25.80;12.98;;;5.10;99.90;;;;;;5076090;28;20036;-62
2022/03/30 00:35:06;;;;;;;25.27;13.68;;;5.00;99.90;;;;;;5075247;28;20484;-61
2022/03/30 00:37:32;;;;;;;28.10;14.15;;;5.10;99.90;;;;;;5075864;28;20107;-60
2022/03/30 00:39:58;;;;;;;28.02;13.88;;;5.10;99.90;;;;;;5075496;28;20064;-60
2022/03/30 00:42:24;;;;;;;26.63;11.88;;;5.10;99.90;;;;;;5075864;28;20024;-59
2022/03/30 00:44:51;;;;;;;26.02;13.77;;;5.20;99.90;;;;;;5075103;28;20093;-61
2022/03/30 00:47:22;;;;;;;29.38;14.02;;;5.20;99.90;;;;;;5076104;28;20664;-61
2022/03/30 00:49:48;;;;;;;37.67;15.23;;;5.10;99.90;;;;;;5075606;28;20488;-62
2022/03/30 00:52:14;;;;;;;26.55;12.35;;;5.10;99.90;;;;;;5076205;28;20085;-62
2022/03/30 00:54:42;;;;;;;25.58;12.15;;;5.00;99.90;;;;;;5076041;28;20445;-59
2022/03/30 00:57:09;;;;;;;28.42;14.20;;;5.00;99.90;;;;;;5076215;28;20024;-61
2022/03/30 00:59:35;;;;;;;28.53;13.27;;;5.00;99.90;;;;;;5073625;28;20542;-61
2022/03/30 01:02:02;;;;;;;26.85;12.65;;;4.90;99.90;;;;;;5074078;28;20271;-59
2022/03/30 01:04:28;;;;;;;29.00;12.90;;;4.80;99.90;;;;;;5074758;28;20346;-61
2022/03/30 01:06:54;;;;;;;31.73;14.98;;;4.80;99.90;;;;;;5076072;28;20482;-62
2022/03/30 01:09:20;;;;;;;28.95;13.82;;;4.80;99.90;;;;;;5075228;28;20052;-59
2022/03/30 01:11:47;;;;;;;26.00;13.30;;;4.70;99.90;;;;;;5076184;28;20028;-62
2022/03/30 01:14:13;;;;;;;28.58;12.35;;;4.70;99.90;;;;;;5075380;28;20475;-62
2022/03/30 01:16:42;;;;;;;27.25;13.35;;;4.70;99.90;;;;;;5074813;28;20024;-62
2022/03/30 01:19:08;;;;;;;;;;;4.60;99.90;;;;;;5074478;28;20427;-59
2022/03/30 01:21:36;;;;;;;27.77;12.48;;;4.60;99.90;;;;;;5075540;28;19957;-61
2022/03/30 01:24:02;;;;;;;28.13;13.52;;;4.60;99.90;;;;;;5075372;28;20480;-61
2022/03/30 01:26:27;;;;;;;30.55;13.00;;;4.60;99.90;;;;;;5075248;28;20078;-60
2022/03/30 01:28:55;;;;;;;28.38;12.70;;;4.60;99.90;;;;;;5073791;28;20362;-60
2022/03/30 01:34:05;;;;;;;30.48;13.82;;;4.50;99.90;;;;;;5075168;28;20074;-60
2022/03/30 01:36:31;;;;;;;29.67;13.10;;;4.50;99.90;;;;;;5073903;28;20027;-61
2022/03/30 01:38:56;;;;;;;27.65;13.38;;;4.60;99.90;;;;;;5074585;28;20025;-61
2022/03/30 01:41:22;;;;;;;26.65;14.13;;;4.50;99.90;;;;;;5073852;28;20046;-57
2022/03/30 01:43:48;;;;;;;30.17;13.75;;;4.50;99.90;;;;;;5075079;28;20037;-60
2022/03/30 01:46:13;;;;;;;27.85;13.65;;;4.60;99.90;;;;;;5075029;28;20168;-61
2022/03/30 01:48:39;;;;;;;31.48;14.40;;;4.60;99.90;;;;;;5073262;28;20456;-62
2022/03/30 01:51:04;;;;;;;30.35;14.15;;;4.60;99.90;;;;;;5074134;28;20484;-61
2022/03/30 01:53:30;;;;;;;26.15;13.75;;;4.60;99.90;;;;;;5073142;28;20025;-61
2022/03/30 01:55:56;;;;;;;28.52;13.60;;;4.60;99.90;;;;;;5073004;28;20082;-62
2022/03/30 01:58:22;;;;;;;27.25;13.45;;;4.60;99.90;;;;;;5074369;28;20028;-59
2022/03/30 02:00:47;;;;;;;25.45;13.43;;;4.70;99.90;;;;;;5074146;28;20106;-59
2022/03/30 02:03:13;;;;;;;33.28;14.20;;;4.60;99.90;;;;;;5072980;28;20032;-60
2022/03/30 02:05:39;;;;;;;32.13;13.93;;;4.70;99.90;;;;;;5073872;28;20480;-62
2022/03/30 02:08:04;;;;;;;29.60;13.35;;;4.80;99.90;;;;;;5074406;28;20047;-61
2022/03/30 02:10:31;;;;;;;29.35;13.68;;;4.70;99.90;;;;;;5073973;28;20021;-60
2022/03/30 02:12:58;;;;;;;23.90;12.27;;;4.70;99.90;;;;;;5074255;28;20028;-60
2022/03/30 02:15:24;;;;;;;32.17;14.15;;;4.80;99.90;;;;;;5074048;28;20021;-62
2022/03/30 02:17:50;;;;;;;26.60;14.48;;;4.70;99.90;;;;;;5072977;28;20097;-61
2022/03/30 02:20:16;;;;;;;29.23;13.32;;;4.60;99.90;;;;;;5072537;28;20082;-62
2022/03/30 02:22:42;;;;;;;27.02;14.43;;;4.60;99.90;;;;;;5072788;28;20036;-61
2022/03/30 02:25:08;;;;;;;27.77;13.90;;;4.60;99.90;;;;;;5072436;28;20020;-62
2022/03/30 02:27:35;;;;;;;30.35;14.52;;;4.50;99.90;;;;;;5073027;28;20032;-60
2022/03/30 02:30:01;;;;;;;35.72;18.25;;;4.50;99.90;;;;;;5071189;28;20020;-62
2022/03/30 02:32:26;;;;;;;80.88;47.85;;;4.40;99.90;;;;;;5072479;28;20032;-61
2022/03/30 02:34:52;;;;;;;38.42;18.10;;;4.50;99.90;;;;;;5071144;28;20396;-61
2022/03/30 02:37:18;;;;;;;37.33;17.85;;;4.50;99.90;;;;;;5072144;28;20031;-60
2022/03/30 02:39:44;;;;;;;43.78;22.13;;;4.40;99.90;;;;;;5070263;28;20025;-60
2022/03/30 02:42:10;;;;;;;36.72;17.48;;;4.40;99.90;;;;;;5070973;28;20025;-62
2022/03/30 02:44:36;;;;;;;29.70;15.95;;;4.30;99.90;;;;;;5071840;28;20025;-60
2022/03/30 02:47:03;;;;;;;37.95;18.45;;;4.20;99.90;;;;;;5071249;28;20116;-60
2022/03/30 02:49:29;;;;;;;28.27;14.75;;;4.30;99.90;;;;;;5072072;28;20024;-61
2022/03/30 02:51:54;;;;;;;39.47;22.45;;;4.30;99.90;;;;;;5072522;28;20075;-57
2022/03/30 02:54:21;;;;;;;32.42;15.90;;;4.30;99.90;;;;;;5072193;28;20489;-60
2022/03/30 02:56:47;;;;;;;29.55;14.02;;;4.30;99.90;;;;;;5071444;28;20054;-60
2022/03/30 02:59:12;;;;;;;39.38;15.15;;;4.40;99.90;;;;;;5071876;28;20383;-58
2022/03/30 03:01:38;;;;;;;32.30;14.40;;;4.30;99.90;;;;;;5073311;28;20050;-59
2022/03/30 03:04:04;;;;;;;27.90;13.43;;;4.30;99.90;;;;;;5073201;28;20116;-60
2022/03/30 03:06:31;;;;;;;32.88;15.52;;;4.20;99.90;;;;;;5073491;28;20032;-60
2022/03/30 03:08:57;;;;;;;32.45;15.13;;;4.20;99.90;;;;;;5072554;28;20032;-60
2022/03/30 03:11:24;;;;;;;36.45;15.95;;;4.10;99.90;;;;;;5071748;28;20067;-61
2022/03/30 03:13:50;;;;;;;30.77;14.52;;;4.10;99.90;;;;;;5073601;28;20036;-62
2022/03/30 03:16:15;;;;;;;26.23;13.40;;;4.10;99.90;;;;;;5071207;28;20623;-61
2022/03/30 03:18:41;;;;;;;26.15;14.57;;;4.10;99.90;;;;;;5071582;28;20078;-61
2022/03/30 03:21:06;;;;;;;32.20;15.13;;;4.10;99.90;;;;;;5071498;28;20035;-59
2022/03/30 03:23:32;;;;;;;33.78;15.27;;;4.10;99.90;;;;;;5073365;28;20076;-62
2022/03/30 03:25:58;;;;;;;38.95;16.13;;;4.10;99.90;;;;;;5073646;28;20028;-60
2022/03/30 03:28:23;;;;;;;32.08;15.10;;;4.10;99.90;;;;;;5074455;28;20101;-62
2022/03/30 03:30:49;;;;;;;26.15;14.80;;;4.10;99.90;;;;;;5073118;28;20422;-62
2022/03/30 03:33:15;;;;;;;29.65;14.10;;;4.00;99.90;;;;;;5072902;28;20029;-62
2022/03/30 03:35:40;;;;;;;29.00;13.85;;;4.00;99.90;;;;;;5071878;28;20021;-63
2022/03/30 03:38:08;;;;;;;30.60;15.23;;;3.90;99.90;;;;;;5073036;28;20116;-62
2022/03/30 03:40:35;;;;;;;29.35;14.57;;;3.90;99.90;;;;;;5073975;28;20045;-60
2022/03/30 03:43:02;;;;;;;30.98;15.07;;;3.80;99.90;;;;;;5072731;28;20500;-62
2022/03/30 03:45:28;;;;;;;28.08;14.93;;;3.80;99.90;;;;;;5071731;28;20029;-61
2022/03/30 03:47:54;;;;;;;26.80;13.70;;;3.80;99.90;;;;;;5071566;28;20047;-60
2022/03/30 03:50:20;;;;;;;29.55;14.20;;;3.70;99.90;;;;;;5071260;28;20021;-61
2022/03/30 03:52:46;;;;;;;28.80;14.93;;;3.70;99.90;;;;;;5072103;28;20033;-61
2022/03/30 03:55:12;;;;;;;30.80;14.27;;;3.70;99.90;;;;;;5073031;28;20028;-62
2022/03/30 03:57:41;;;;;;;27.08;14.35;;;3.70;99.90;;;;;;5072207;28;20084;-63
2022/03/30 04:00:09;;;;;;;29.40;13.77;;;3.70;99.90;;;;;;5073624;28;20124;-62
2022/03/30 04:02:35;;;;;;;29.70;15.10;;;3.70;99.90;;;;;;5073550;28;20025;-60
2022/03/30 04:05:01;;;;;;;33.33;16.25;;;3.70;99.90;;;;;;5073429;28;20024;-60
2022/03/30 04:07:27;;;;;;;31.25;15.98;;;3.70;99.90;;;;;;5073116;28;20028;-63
2022/03/30 04:09:52;;;;;;;26.08;14.35;;;3.60;99.90;;;;;;5073565;28;20427;-62
2022/03/30 04:12:18;;;;;;;31.70;16.23;;;3.60;99.90;;;;;;5077667;28;20028;-60
2022/03/30 04:14:44;;;;;;;29.70;15.27;;;3.50;99.90;;;;;;5077020;28;20029;-61
2022/03/30 04:17:11;;;;;;;32.63;14.90;;;3.50;99.90;;;;;;5076950;28;20382;-62
2022/03/30 04:19:37;;;;;;;32.30;15.02;;;3.50;99.90;;;;;;5074709;28;20043;-62
2022/03/30 04:22:02;;;;;;;30.42;15.75;;;3.40;99.90;;;;;;5076561;28;20197;-61
2022/03/30 04:24:28;;;;;;;27.27;15.02;;;3.40;99.90;;;;;;5075212;28;20075;-59
2022/03/30 04:26:54;;;;;;;27.13;14.73;;;3.40;99.90;;;;;;5077105;28;20426;-61
2022/03/30 04:29:20;;;;;;;33.78;16.17;;;3.40;99.90;;;;;;5075852;28;20076;-60
2022/03/30 04:31:45;;;;;;;28.25;15.38;;;3.40;99.90;;;;;;5076050;28;20020;-60
2022/03/30 04:34:11;;;;;;;28.33;14.95;;;3.40;99.90;;;;;;5075713;28;20024;-63
2022/03/30 04:36:37;;;;;;;29.00;14.38;;;3.30;99.90;;;;;;5076640;28;20040;-60
2022/03/30 04:39:04;;;;;;;28.98;15.68;;;3.30;99.90;;;;;;5075765;28;20052;-59
2022/03/30 04:41:29;;;;;;;35.38;17.83;;;3.30;99.90;;;;;;5077084;28;20036;-60
2022/03/30 04:43:55;;;;;;;32.53;16.65;;;3.30;99.90;;;;;;5075587;28;20055;-60
2022/03/30 04:46:21;;;;;;;31.35;17.52;;;3.30;99.90;;;;;;5076245;28;20036;-61
2022/03/30 04:48:46;;;;;;;31.13;16.02;;;3.30;99.90;;;;;;5075748;28;20028;-55
2022/03/30 04:51:12;;;;;;;30.35;15.40;;;3.30;99.90;;;;;;5074060;28;20081;-59
2022/03/30 04:53:37;;;;;;;27.77;15.63;;;3.30;99.90;;;;;;5075499;28;20029;-60
2022/03/30 04:56:03;;;;;;;31.83;17.88;;;3.30;99.90;;;;;;5075671;28;20396;-60
2022/03/30 04:58:30;;;;;;;30.23;16.00;;;3.40;99.90;;;;;;5075540;28;20055;-62
2022/03/30 05:00:55;;;;;;;34.65;17.42;;;3.50;99.90;;;;;;5073850;28;20024;-60
2022/03/30 05:03:21;;;;;;;31.42;15.95;;;3.50;99.90;;;;;;5073095;28;20054;-61
2022/03/30 05:05:46;;;;;;;28.13;15.93;;;3.50;99.90;;;;;;5073702;28;20028;-63
2022/03/30 05:08:12;;;;;;;30.88;16.60;;;3.40;99.90;;;;;;5074851;28;20021;-59
2022/03/30 05:10:38;;;;;;;29.17;16.05;;;3.30;99.90;;;;;;5072752;28;20051;-60
2022/03/30 05:13:04;;;;;;;27.50;15.93;;;3.30;99.90;;;;;;5073986;28;20492;-61
2022/03/30 05:15:30;;;;;;;30.83;16.75;;;3.30;99.90;;;;;;5073959;28;20020;-61
2022/03/30 05:17:56;;;;;;;31.73;16.35;;;3.30;99.90;;;;;;5072706;28;20024;-56
2022/03/30 05:20:22;;;;;;;35.33;19.15;;;3.30;99.90;;;;;;5073144;28;20107;-52
2022/03/30 05:22:47;;;;;;;35.40;17.10;;;3.30;99.90;;;;;;5072099;28;20116;-59
2022/03/30 05:25:15;;;;;;;28.85;15.05;;;3.30;99.90;;;;;;5072280;28;20147;-60
2022/03/30 05:27:42;;;;;;;33.58;18.13;;;3.20;99.90;;;;;;5074528;28;20025;-60
2022/03/30 05:30:09;;;;;;;33.63;16.17;;;3.30;99.90;;;;;;5074673;28;20016;-59
2022/03/30 05:32:36;;;;;;;26.90;14.95;;;3.40;99.90;;;;;;5074425;28;20024;-60
2022/03/30 05:35:03;;;;;;;34.58;15.60;;;3.40;99.90;;;;;;5074065;28;20112;-59
2022/03/30 05:37:30;;;;;;;30.60;14.05;;;3.40;99.90;;;;;;5073780;28;20032;-62
2022/03/30 05:39:56;;;;;;;31.05;16.33;;;3.40;99.90;;;;;;5074093;28;20161;-57
2022/03/30 05:42:22;;;;;;;30.83;15.63;;;3.30;99.90;;;;;;5074366;28;20051;-60
2022/03/30 05:44:49;;;;;;;33.20;15.80;;;3.40;99.90;;;;;;5073633;28;20028;-61
2022/03/30 05:47:14;;;;;;;30.52;16.00;;;3.40;99.90;;;;;;5073719;28;20024;-61
2022/03/30 05:49:41;;;;;;;27.48;15.82;;;3.50;99.90;;;;;;5073765;28;20539;-60
2022/03/30 05:52:07;;;;;;;25.48;13.65;;;3.50;99.90;;;;;;5073646;28;20063;-61
2022/03/30 05:54:33;;;;;;;25.98;14.93;;;3.60;99.90;;;;;;5089178;22;20028;-65
2022/03/30 05:57:01;;;;;;;35.92;14.45;;;3.70;99.90;;;;;;5073461;28;20154;-65
2022/03/30 05:59:29;;;;;;;;;;;3.70;99.90;;;;;;5072460;28;20074;-65
2022/03/30 06:01:55;;;;;;;32.17;16.17;;;3.80;99.90;;;;;;5072253;28;19943;-65
2022/03/30 06:04:20;;;;;;;25.27;14.02;;;3.90;99.90;;;;;;5072387;28;20024;-65
2022/03/30 06:06:46;;;;;;;32.40;15.13;;;4.00;99.90;;;;;;5074255;28;20108;-67
2022/03/30 06:09:12;;;;;;;28.30;15.52;;;4.00;99.90;;;;;;5071649;28;20025;-66
2022/03/30 06:11:37;;;;;;;31.63;15.60;;;4.10;99.90;;;;;;5073676;28;20095;-66
2022/03/30 06:14:03;;;;;;;30.98;15.30;;;4.20;99.90;;;;;;5071902;28;20032;-65
2022/03/30 06:16:29;;;;;;;28.20;14.55;;;4.30;99.90;;;;;;5071947;28;20021;-66
2022/03/30 06:18:55;;;;;;;25.65;13.55;;;4.40;99.90;;;;;;5072986;28;20021;-65
2022/03/30 06:21:21;;;;;;;33.30;16.15;;;4.60;99.90;;;;;;5071631;28;20468;-66
2022/03/30 06:23:47;;;;;;;32.42;15.82;;;4.60;99.90;;;;;;5074042;28;20075;-65
2022/03/30 06:26:13;;;;;;;30.10;15.45;;;4.70;99.90;;;;;;5074030;28;20074;-65
2022/03/30 06:28:39;;;;;;;29.92;14.38;;;4.60;99.90;;;;;;5072094;28;20056;-66
2022/03/30 06:31:04;;;;;;;29.42;13.80;;;4.70;99.90;;;;;;5072819;28;20024;-66
2022/03/30 06:33:30;;;;;;;28.90;13.85;;;4.60;99.90;;;;;;5073020;28;20078;-66
2022/03/30 06:35:56;;;;;;;33.90;16.17;;;4.70;99.90;;;;;;5072790;28;20089;-65
2022/03/30 06:38:22;;;;;;;28.42;13.75;;;4.70;99.90;;;;;;5073490;28;20075;-66
2022/03/30 06:40:48;;;;;;;30.17;14.07;;;4.70;99.90;;;;;;5072354;28;20453;-66
2022/03/30 06:43:14;;;;;;;36.30;16.05;;;4.80;99.90;;;;;;5072816;28;20109;-66
2022/03/30 06:45:40;;;;;;;30.63;14.27;;;4.80;99.90;;;;;;5072523;28;20025;-66
2022/03/30 06:48:06;;;;;;;30.35;16.98;;;4.80;99.90;;;;;;5071420;28;20050;-66
2022/03/30 06:50:32;;;;;;;27.73;13.82;;;4.90;99.90;;;;;;5072592;28;20028;-66
2022/03/30 06:52:59;;;;;;;29.42;13.10;;;4.90;99.90;;;;;;5071294;28;20028;-66
2022/03/30 06:55:25;;;;;;;31.92;16.13;;;5.00;99.90;;;;;;5072134;28;20059;-66
2022/03/30 06:57:50;;;;;;;26.02;13.57;;;5.10;99.90;;;;;;5072292;28;20023;-66
2022/03/30 07:00:17;;;;;;;28.88;13.43;;;5.20;99.90;;;;;;5071847;28;20037;-65
2022/03/30 07:02:43;;;;;;;27.70;13.80;;;5.30;99.90;;;;;;5073369;28;20023;-65
2022/03/30 07:05:09;;;;;;;26.42;13.82;;;5.40;99.90;;;;;;5072447;28;20095;-66
2022/03/30 07:10:20;;;;;;;28.52;12.07;;;5.60;99.90;;;;;;5073512;28;20043;-65
2022/03/30 07:12:48;;;;;;;25.55;12.20;;;5.70;99.90;;;;;;5074102;28;20021;-65
2022/03/30 07:15:16;;;;;;;26.85;13.02;;;5.80;99.90;;;;;;5072255;28;20039;-65
2022/03/30 07:17:50;;;;;;;23.13;10.77;;;5.90;99.90;;;;;;5071131;28;20120;-65
2022/03/30 07:20:16;;;;;;;25.38;11.23;;;6.00;99.90;;;;;;5073190;28;20473;-66
2022/03/30 07:22:43;;;;;;;27.67;11.65;;;6.10;99.90;;;;;;5072256;28;20118;-65
2022/03/30 07:25:10;;;;;;;29.20;11.57;;;6.10;99.90;;;;;;5072384;28;20056;-65
2022/03/30 07:27:40;;;;;;;30.33;12.88;;;6.20;99.90;;;;;;5071141;28;20028;-65
2022/03/30 07:30:07;;;;;;;30.98;14.35;;;6.30;99.90;;;;;;5072265;28;20021;-65
2022/03/30 07:32:34;;;;;;;33.50;15.23;;;6.30;99.90;;;;;;5072635;28;20111;-65
2022/03/30 07:35:01;;;;;;;24.05;10.98;;;6.40;99.90;;;;;;5072087;28;20396;-66
2022/03/30 07:37:26;;;;;;;25.45;11.23;;;6.50;99.90;;;;;;5072522;28;20023;-66
2022/03/30 07:39:52;;;;;;;28.60;10.63;;;6.50;99.90;;;;;;5072428;28;20025;-65
2022/03/30 07:42:17;;;;;;;33.22;14.98;;;6.70;99.90;;;;;;5072472;28;20021;-65
2022/03/30 07:44:43;;;;;;;25.67;11.85;;;6.70;99.90;;;;;;5070725;28;20500;-65
2022/03/30 07:47:09;;;;;;;27.67;12.65;;;6.70;99.90;;;;;;5074241;28;20028;-65
2022/03/30 07:49:34;;;;;;;33.28;16.10;;;6.90;99.90;;;;;;5075424;28;20024;-65
2022/03/30 07:52:03;;;;;;;34.00;13.85;;;6.90;99.90;;;;;;5075568;28;20063;-66
2022/03/30 07:54:29;;;;;;;32.50;13.23;;;6.90;99.90;;;;;;5075333;28;20054;-66
2022/03/30 07:56:54;;;;;;;29.90;12.90;;;6.90;99.90;;;;;;5075710;28;20036;-65
2022/03/30 07:59:20;;;;;;;24.42;10.13;;;6.90;99.90;;;;;;5074729;28;20070;-66
2022/03/30 08:01:46;;;;;;;23.58;11.25;;;7.10;99.90;;;;;;5074101;28;20025;-64
2022/03/30 08:04:12;;;;;;;30.67;15.65;;;7.20;99.90;;;;;;5074071;28;20634;-65
2022/03/30 08:06:38;;;;;;;24.10;11.48;;;7.30;99.90;;;;;;5076063;28;20108;-65
2022/03/30 08:09:04;;;;;;;25.92;11.57;;;7.40;99.90;;;;;;5074882;28;20085;-65
2022/03/30 08:11:30;;;;;;;22.45;11.10;;;7.40;99.90;;;;;;5075695;28;20024;-66
2022/03/30 08:13:56;;;;;;;28.25;12.40;;;7.30;99.90;;;;;;5074050;28;20401;-65
2022/03/30 08:16:22;;;;;;;30.35;12.68;;;7.40;99.90;;;;;;5074872;28;20024;-66
2022/03/30 08:18:48;;;;;;;22.35;11.00;;;7.50;99.90;;;;;;5073732;28;20066;-65
2022/03/30 08:23:58;;;;;;;22.20;11.25;;;7.60;99.90;;;;;;5075827;28;20032;-66
2022/03/30 08:26:23;;;;;;;30.92;14.73;;;7.60;99.90;;;;;;5073464;28;20033;-66
2022/03/30 08:28:49;;;;;;;20.30;10.85;;;7.80;99.90;;;;;;5074986;28;20028;-66
2022/03/30 08:31:15;;;;;;;26.00;12.43;;;8.00;99.90;;;;;;5075214;28;20029;-63
2022/03/30 08:33:40;;;;;;;27.15;11.20;;;8.00;99.90;;;;;;5073085;28;20024;-64
2022/03/30 08:36:07;;;;;;;27.52;11.23;;;8.00;99.90;;;;;;5074234;28;20070;-62
2022/03/30 08:38:33;;;;;;;25.90;12.27;;;8.10;99.90;;;;;;5074385;28;20027;-60
2022/03/30 08:40:59;;;;;;;26.30;11.18;;;8.20;99.90;;;;;;5074755;28;20024;-61
2022/03/30 08:43:26;;;;;;;21.98;12.75;;;8.20;99.90;;;;;;5073408;28;20024;-63
2022/03/30 08:45:55;;;;;;;25.58;11.48;;;8.20;99.90;;;;;;5074303;28;20342;-62
2022/03/30 08:48:21;;;;;;;21.15;11.63;;;8.30;99.90;;;;;;5074911;28;20056;-63
2022/03/30 08:50:48;;;;;;;21.45;10.90;;;8.50;99.90;;;;;;5074367;28;20047;-63
2022/03/30 08:53:16;;;;;;;23.02;11.27;;;8.60;99.90;;;;;;5074872;28;20028;-60
2022/03/30 08:55:42;;;;;;;26.10;12.32;;;8.60;99.90;;;;;;5074545;28;20024;-62
2022/03/30 08:58:08;;;;;;;26.27;12.90;;;8.60;99.90;;;;;;5074491;28;20077;-62
2022/03/30 09:00:34;;;;;;;23.90;13.15;;;8.60;99.90;;;;;;5073999;28;20422;-60
2022/03/30 09:03:01;;;;;;;25.45;12.63;;;8.60;99.90;;;;;;5073026;28;20024;-61
2022/03/30 09:05:30;;;;;;;23.23;11.48;;;8.80;99.90;;;;;;5073073;28;20484;-59
2022/03/30 09:08:11;;;;;;;28.05;12.80;;;8.90;99.90;;;;;;5070029;28;20071;-61
2022/03/30 09:10:39;;;;;;;26.40;11.30;;;9.00;99.90;;;;;;5074203;28;20048;-60
2022/03/30 09:13:07;;;;;;;26.42;12.60;;;8.90;99.90;;;;;;5076086;28;20028;-62
2022/03/30 09:15:34;;;;;;;27.13;14.20;;;9.00;99.90;;;;;;5072511;28;20021;-56
2022/03/30 09:18:05;;;;;;;26.88;12.82;;;9.20;99.90;;;;;;5072948;28;20024;-62
2022/03/30 09:20:31;;;;;;;23.58;11.95;;;9.20;99.90;;;;;;5074079;28;20028;-59
2022/03/30 09:22:58;;;;;;;27.08;12.68;;;9.40;99.90;;;;;;5074822;28;20025;-62
2022/03/30 09:25:26;;;;;;;24.13;12.32;;;9.50;99.90;;;;;;5073098;28;20054;-61
2022/03/30 09:27:54;;;;;;;29.70;12.30;;;9.40;99.90;;;;;;5073905;28;20032;-64
2022/03/30 09:30:21;;;;;;;25.17;12.63;;;9.40;99.90;;;;;;5072956;28;20029;-65
2022/03/30 09:32:48;;;;;;;26.35;12.48;;;9.40;99.90;;;;;;5073891;28;20226;-64
2022/03/30 09:35:38;;;;;;;21.23;10.93;;;9.40;99.90;;;;;;5072870;28;20048;-66
2022/03/30 09:38:36;;;;;;;24.30;11.77;;;9.60;99.90;;;;;;5072218;28;20427;-63
2022/03/30 09:41:04;;;;;;;24.70;13.63;;;9.80;99.90;;;;;;5039819;28;20507;-64
2022/03/30 09:43:29;;;;;;;23.08;11.68;;;9.90;99.90;;;;;;5074108;28;20460;-64
2022/03/30 09:46:08;;;;;;;23.05;11.65;;;10.10;99.90;;;;;;5087961;28;20133;-64
2022/03/30 09:48:53;;;;;;;25.77;14.40;;;9.90;99.90;;;;;;5066072;28;20056;-63
2022/03/30 09:51:20;;;;;;;28.23;13.55;;;10.20;99.90;;;;;;5071953;28;20029;-64
2022/03/30 09:53:46;;;;;;;25.30;12.50;;;10.40;99.90;;;;;;5073649;28;20115;-64
2022/03/30 09:56:20;;;;;;;27.10;12.70;;;10.60;99.90;;;;;;5072289;28;20039;-62
2022/03/30 09:58:47;;;;;;;26.25;12.18;;;10.60;99.90;;;;;;5070341;28;20020;-54
2022/03/30 10:01:19;;;;;;;27.40;13.93;;;10.70;99.90;;;;;;5073170;28;20108;-61
2022/03/30 10:04:04;;;;;;;23.98;14.05;;;10.80;99.90;;;;;;5072751;28;20534;-60
2022/03/30 10:06:40;;;;;;;24.42;13.05;;;11.30;99.90;;;;;;5072056;28;20040;-62
2022/03/30 10:09:05;;;;;;;23.55;12.57;;;11.40;99.90;;;;;;5071137;28;20067;-57
2022/03/30 10:11:31;;;;;;;28.45;13.73;;;11.60;99.90;;;;;;5072750;28;20472;-61
2022/03/30 10:13:59;;;;;;;23.17;13.00;;;11.80;99.90;;;;;;5072917;28;20059;-60
2022/03/30 10:16:26;;;;;;;22.13;12.88;;;12.00;99.90;;;;;;5072719;28;20346;-62
2022/03/30 10:18:52;;;;;;;23.58;11.65;;;12.30;99.70;;;;;;5069145;28;20032;-64
2022/03/30 10:21:26;;;;;;;21.33;11.60;;;12.40;98.90;;;;;;5072741;28;20017;-59
2022/03/30 10:24:16;;;;;;;25.00;13.85;;;12.50;98.30;;;;;;5072668;28;20499;-62
2022/03/30 10:27:01;;;;;;;21.73;12.45;;;12.90;98.50;;;;;;5073465;28;20028;-61
2022/03/30 10:29:29;;;;;;;23.20;12.77;;;13.40;97.30;;;;;;5072226;28;20052;-64
2022/03/30 10:32:11;;;;;;;24.55;12.75;;;13.80;96.90;;;;;;5072712;28;20016;-63
2022/03/30 10:35:03;;;;;;;24.40;12.73;;;13.80;95.80;;;;;;5072247;28;20710;-63
2022/03/30 10:37:34;;;;;;;21.42;12.38;;;13.10;95.70;;;;;;5072925;28;20039;-63
2022/03/30 10:40:03;;;;;;;25.35;13.55;;;12.70;95.70;;;;;;5072369;28;20515;-62
2022/03/30 10:42:49;;;;;;;23.02;12.07;;;;;;;;;;5073675;28;20150;-64
2022/03/30 10:45:27;;;;;;;21.42;12.45;;;;;;;;;;5071506;28;20166;-63
2022/03/30 10:48:12;;;;;;;21.10;11.48;;;12.10;96.30;;;;;;5073496;28;20025;-62
2022/03/30 10:50:49;;;;;;;22.35;12.45;;;11.90;97.00;;;;;;5088386;28;20024;-64
2022/03/30 10:53:33;;;;;;;22.73;12.25;;;12.10;96.70;;;;;;5073321;28;20028;-65
2022/03/30 10:56:14;;;;;;;22.15;13.05;;;12.40;96.30;;;;;;5072157;28;20020;-64
2022/03/30 10:58:49;;;;;;;21.70;11.25;;;12.60;95.40;;;;;;5088958;28;20295;-64
2022/03/30 11:01:22;;;;;;;23.15;12.55;;;12.60;95.40;;;;;;5073307;28;20151;-64
2022/03/30 11:04:10;;;;;;;20.90;12.77;;;12.70;95.50;;;;;;5072328;28;20029;-66
2022/03/30 11:06:49;;;;;;;22.98;11.27;;;12.60;96.10;;;;;;5062943;28;20435;-64
2022/03/30 11:09:28;;;;;;;;;;;12.70;94.90;;;;;;5074107;28;20031;-63
2022/03/30 11:12:05;;;;;;;19.67;11.10;;;13.00;94.30;;;;;;5071696;28;19912;-63
2022/03/30 11:14:36;;;;;;;20.85;11.90;;;13.70;94.60;;;;;;5084780;28;20024;-63
2022/03/30 11:17:06;;;;;;;20.98;11.70;;;14.40;93.10;;;;;;5092517;28;20439;-62
2022/03/30 11:19:46;;;;;;;22.15;12.13;;;14.70;92.50;;;;;;5078996;28;20026;-63
2022/03/30 11:22:15;;;;;;;20.42;11.95;;;15.30;91.90;;;;;;5076764;28;20021;-63
2022/03/30 11:24:43;;;;;;;21.85;12.70;;;15.80;90.30;;;;;;5075724;28;20027;-63
2022/03/30 11:27:09;;;;;;;27.42;15.50;;;16.10;89.00;;;;;;5075769;28;20074;-60
2022/03/30 11:29:57;;;;;;;22.27;12.80;;;16.20;88.60;;;;;;5076922;28;20066;-64
2022/03/30 11:32:22;;;;;;;21.38;12.57;;;16.00;87.20;;;;;;5075759;28;20028;-63
2022/03/30 11:34:54;;;;;;;21.00;13.15;;;14.90;88.20;;;;;;5077394;28;20017;-64
2022/03/30 11:37:25;;;;;;;20.63;12.18;;;14.10;88.60;;;;;;5078387;28;20017;-63
2022/03/30 11:39:59;;;;;;;24.17;13.23;;;14.40;91.00;;;;;;5077470;28;20048;-61
2022/03/30 11:42:25;;;;;;;22.05;13.18;;;16.10;90.00;;;;;;5077535;28;20016;-63
2022/03/30 11:47:36;;;;;;;23.30;13.77;;;17.80;81.80;;;;;;5077680;28;20078;-63
2022/03/30 11:50:03;;;;;;;25.75;15.25;;;17.40;80.20;;;;;;5077142;28;20536;-63
2022/03/30 11:52:28;;;;;;;21.02;12.77;;;16.30;82.10;;;;;;5075031;28;20032;-62
2022/03/30 11:54:57;;;;;;;22.05;13.48;;;15.40;82.60;;;;;;5077717;28;20029;-57
2022/03/30 11:57:23;;;;;;;;;;;14.70;85.30;;;;;;5078477;28;20046;-61
2022/03/30 11:59:55;;;;;;;23.17;13.00;;;14.00;84.60;;;;;;5076795;28;19924;-63
2022/03/30 12:02:28;;;;;;;19.50;12.20;;;14.20;85.80;;;;;;5078058;28;20036;-63
2022/03/30 12:04:56;;;;;;;19.70;12.77;;;14.40;84.20;;;;;;5077014;28;20028;-63
2022/03/30 12:07:22;;;;;;;20.47;12.47;;;14.50;84.10;;;;;;4732574;28;10000566;-63
2022/03/30 12:09:55;;;;;;;23.27;13.07;;;14.30;86.00;;;;;;5076939;28;20016;-63
2022/03/30 12:12:31;;;;;;;20.10;11.98;;;14.70;84.90;;;;;;5074457;28;20024;-63
2022/03/30 12:15:03;;;;;;;23.83;13.90;;;14.50;83.60;;;;;;5073331;28;20461;-56
2022/03/30 12:17:29;;;;;;;23.33;13.32;;;14.50;84.70;;;;;;5067470;28;20074;-54
2022/03/30 12:19:55;;;;;;;21.67;12.30;;;14.50;83.30;;;;;;5071169;28;20372;-61
2022/03/30 12:22:22;;;;;;;19.58;11.55;;;14.50;83.30;;;;;;5071594;28;20025;-61
2022/03/30 12:24:48;;;;;;;21.02;11.95;;;14.30;83.00;;;;;;5071862;28;20048;-61
2022/03/30 12:27:14;;;;;;;19.17;12.05;;;14.50;84.10;;;;;;5071192;28;20052;-63
2022/03/30 12:29:40;;;;;;;20.23;11.57;;;14.80;82.80;;;;;;5066058;28;20060;-61
2022/03/30 12:32:10;;;;;;;19.55;11.38;;;14.90;81.90;;;;;;5059122;28;20052;-63
2022/03/30 12:34:36;;;;;;;22.25;12.45;;;15.00;81.50;;;;;;5073536;28;20033;-63
2022/03/30 12:37:05;;;;;;;20.55;12.73;;;15.00;81.60;;;;;;5070193;28;20031;-63
2022/03/30 12:39:48;;;;;;;18.80;12.40;;;15.00;80.30;;;;;;5076383;28;20035;-61
2022/03/30 12:42:21;;;;;;;19.10;12.48;;;14.80;80.90;;;;;;5076341;28;20050;-64
2022/03/30 12:44:46;;;;;;;21.75;13.88;;;15.20;83.60;;;;;;5069103;28;20481;-63
2022/03/30 12:47:17;;;;;;;23.05;12.80;;;15.40;80.00;;;;;;5054239;28;20079;-67
2022/03/30 12:49:43;;;;;;;22.10;12.95;;;15.50;81.20;;;;;;5053790;28;20112;-64